Time;durP1;ratioP1;P1;durP2;ratioP2;P2;SDS_P1;SDS_P2;PMS_P1;PMS_P2;Temp;Humidity;BMP_temperature;BMP_pressure;BME280_temperature;BME280_humidity;BME280_pressure;Samples;Min_cycle;Max_cycle;Signal;HPM_P1;HPM_P2
2021/06/11 00:00:10;;;;;;;7.72;3.12;;;;;;;10.82;91.47;93116.63;1868341;76;21110;-79
2021/06/11 00:02:40;;;;;;;5.42;3.00;;;;;;;10.83;91.37;93114.67;1881185;76;20966;-78
2021/06/11 00:05:07;;;;;;;4.72;3.40;;;;;;;10.86;91.30;93109.80;1880354;76;21006;-78
2021/06/11 00:07:35;;;;;;;5.28;3.25;;;;;;;10.86;91.08;93110.56;1867032;76;21423;-79
2021/06/11 00:10:04;;;;;;;6.80;3.27;;;;;;;10.88;91.11;93106.09;1872777;76;21010;-78
2021/06/11 00:12:30;;;;;;;5.17;3.70;;;;;;;10.89;90.97;93112.48;1873931;76;21105;-78
2021/06/11 00:14:58;;;;;;;3.83;3.35;;;;;;;10.84;91.20;93108.84;1866530;76;21022;-78
2021/06/11 00:17:25;;;;;;;8.78;3.22;;;;;;;10.86;91.43;93105.72;1881054;76;21001;-78
2021/06/11 00:19:51;;;;;;;6.53;3.12;;;;;;;10.93;91.39;93112.44;1865316;76;21311;-78
2021/06/11 00:22:18;;;;;;;4.50;3.47;;;;;;;10.99;91.02;93110.06;1874862;76;21014;-78
2021/06/11 00:24:44;;;;;;;5.05;3.60;;;;;;;11.03;90.58;93109.44;1881388;76;21129;-78
2021/06/11 00:27:11;;;;;;;4.03;3.72;;;;;;;11.04;90.33;93104.17;1878423;76;21015;-78
2021/06/11 00:29:38;;;;;;;4.72;4.17;;;;;;;11.03;90.07;93104.77;1865742;76;21592;-77
2021/06/11 00:32:05;;;;;;;4.72;4.10;;;;;;;11.02;89.78;93102.44;1879453;75;21045;-77
2021/06/11 00:34:31;;;;;;;5.58;3.20;;;;;;;10.94;89.94;93105.82;1870555;76;21041;-79
2021/06/11 00:36:58;;;;;;;3.95;3.40;;;;;;;10.80;90.47;93094.52;1873769;76;21096;-79
2021/06/11 00:39:24;;;;;;;3.67;3.37;;;;;;;10.71;91.05;93098.28;1881616;76;21010;-78
2021/06/11 00:41:50;;;;;;;3.27;3.00;;;;;;;10.67;91.47;93098.91;1881036;76;20994;-79
2021/06/11 00:44:17;;;;;;;3.50;3.20;;;;;;;10.64;91.73;93099.14;1866613;76;21012;-79
2021/06/11 00:46:44;;;;;;;4.58;3.02;;;;;;;10.57;92.01;93097.84;1877281;76;21014;-80
2021/06/11 00:49:11;;;;;;;3.35;3.05;;;;;;;10.54;92.21;93092.44;1872054;75;21123;-77
2021/06/11 00:51:38;;;;;;;4.00;3.58;;;;;;;10.56;92.59;93095.51;1870233;76;21013;-76
2021/06/11 00:54:05;;;;;;;3.87;3.42;;;;;;;10.62;92.30;93091.96;1879400;76;21018;-77
2021/06/11 00:56:33;;;;;;;4.67;3.15;;;;;;;10.66;91.97;93087.84;1865594;76;21650;-77
2021/06/11 00:59:00;;;;;;;4.58;3.12;;;;;;;10.68;91.56;93093.64;1845706;76;21055;-78
2021/06/11 01:01:26;;;;;;;3.27;2.98;;;;;;;10.64;91.53;93097.78;1870240;76;22222;-78
2021/06/11 01:03:53;;;;;;;6.30;3.55;;;;;;;10.65;91.76;93095.23;1870902;76;21329;-78
2021/06/11 01:06:19;;;;;;;5.05;4.42;;;;;;;10.65;91.72;93091.75;1879172;76;21307;-78
2021/06/11 01:08:46;;;;;;;7.92;5.00;;;;;;;10.67;91.53;93094.83;1843695;76;21065;-78
2021/06/11 01:11:13;;;;;;;7.25;5.25;;;;;;;10.68;91.30;93091.72;1878988;75;21409;-78
2021/06/11 01:13:41;;;;;;;4.95;4.40;;;;;;;10.67;91.30;93095.59;1868662;76;20983;-78
2021/06/11 01:16:07;;;;;;;4.08;3.67;;;;;;;10.68;91.36;93091.72;1871865;76;21523;-77
2021/06/11 01:18:33;;;;;;;3.37;2.95;;;;;;;10.72;90.77;93090.89;1877771;76;21010;-78
2021/06/11 01:21:00;;;;;;;3.70;2.98;;;;;;;10.69;90.47;93094.61;1864901;76;21144;-78
2021/06/11 01:26:38;;;;;;;4.15;3.17;;;;;;;10.35;91.12;93101.33;1859613;76;21178;-78
2021/06/11 01:29:09;;;;;;;4.58;3.12;;;;;;;10.19;92.14;93102.38;1833404;77;21026;-77
2021/06/11 01:31:40;;;;;;;3.45;3.15;;;;;;;10.13;92.50;93107.48;1840822;74;21698;-77
2021/06/11 01:34:17;;;;;;;7.37;3.27;;;;;;;10.06;92.82;93103.45;1816850;76;21069;-78
2021/06/11 01:36:47;;;;;;;5.25;3.37;;;;;;;10.04;92.91;93109.09;1850693;76;20974;-78
2021/06/11 01:39:15;;;;;;;3.67;3.37;;;;;;;10.06;92.82;93103.45;1805932;76;21501;-78
2021/06/11 01:41:42;;;;;;;8.80;3.33;;;;;;;10.00;92.65;93090.09;1871146;76;21017;-79
2021/06/11 01:44:10;;;;;;;4.72;3.47;;;;;;;9.94;93.01;93093.06;1768364;77;21093;-78
2021/06/11 01:46:38;;;;;;;7.08;3.00;;;;;;;9.95;93.48;93089.94;1780401;79;21105;-78
2021/06/11 01:49:04;;;;;;;3.90;3.60;;;;;;;10.02;93.35;93084.28;1800362;79;20992;-78
2021/06/11 01:51:32;;;;;;;3.62;3.33;;;;;;;10.06;92.98;93083.67;1736852;79;21977;-78
2021/06/11 01:53:59;;;;;;;5.35;2.90;;;;;;;10.08;92.84;93073.95;1819874;78;21138;-78
2021/06/11 01:56:26;;;;;;;3.42;3.12;;;;;;;10.11;92.37;93077.80;1782699;77;21117;-78
2021/06/11 01:58:52;;;;;;;3.27;3.02;;;;;;;10.15;92.18;93083.98;1781971;79;21488;-78
2021/06/11 02:01:20;;;;;;;3.08;2.87;;;;;;;10.11;92.04;93079.16;1865841;75;20945;-78
2021/06/11 02:03:47;;;;;;;5.58;3.12;;;;;;;10.04;92.27;93080.56;1782631;78;22079;-78
2021/06/11 02:06:16;;;;;;;5.35;3.45;;;;;;;10.04;92.41;93087.36;1774474;80;21591;-78
2021/06/11 02:08:44;;;;;;;4.17;3.83;;;;;;;10.04;92.04;93084.08;1795753;79;21580;-78
2021/06/11 02:11:10;;;;;;;6.55;3.58;;;;;;;10.07;91.80;93085.20;1825473;78;21014;-77
2021/06/11 02:13:42;;;;;;;4.97;3.30;;;;;;;10.08;91.67;93087.54;1825371;77;21100;-78
2021/06/11 02:16:10;;;;;;;6.35;3.65;;;;;;;10.09;91.65;93086.36;1806639;78;21108;-78
2021/06/11 02:18:36;;;;;;;5.80;4.90;;;;;;;10.05;91.45;93085.62;1847849;77;21022;-78
2021/06/11 02:21:07;;;;;;;6.65;4.37;;;;;;;10.02;91.66;93084.28;1807083;79;21540;-78
2021/06/11 02:23:35;;;;;;;5.35;4.15;;;;;;;9.97;91.36;93088.97;1852835;76;21036;-77
2021/06/11 02:26:03;;;;;;;5.00;3.33;;;;;;;9.91;91.22;93089.78;1823243;77;21057;-77
2021/06/11 02:28:29;;;;;;;4.17;3.75;;;;;;;9.87;91.48;93095.23;1797956;77;22142;-78
2021/06/11 02:30:58;;;;;;;5.25;3.37;;;;;;;9.78;91.71;93088.69;1835096;77;21012;-78
2021/06/11 02:33:25;;;;;;;5.45;4.22;;;;;;;9.72;92.13;93091.06;1795087;79;21405;-78
2021/06/11 02:35:51;;;;;;;3.98;3.67;;;;;;;9.71;92.40;93086.23;1820494;78;21078;-78
2021/06/11 02:38:18;;;;;;;4.00;3.70;;;;;;;9.72;92.49;93082.92;1860283;75;21043;-78
2021/06/11 02:40:44;;;;;;;5.15;3.33;;;;;;;9.74;92.57;93086.00;1871482;75;21123;-78
2021/06/11 02:43:13;;;;;;;4.50;3.92;;;;;;;9.80;92.56;93088.49;1834494;76;21170;-77
2021/06/11 02:45:56;;;;;;;5.92;4.75;;;;;;;9.80;92.08;93089.08;1804214;78;21030;-77
2021/06/11 02:48:34;;;;;;;5.30;4.35;;;;;;;9.78;92.16;93081.91;1819315;78;21061;-78
2021/06/11 02:51:20;;;;;;;4.50;4.00;;;;;;;9.75;92.29;93078.06;1835336;77;20991;-78
2021/06/11 02:53:46;;;;;;;3.92;3.40;;;;;;;9.65;92.34;93081.02;1837246;77;21096;-77
2021/06/11 02:56:17;;;;;;;4.60;4.08;;;;;;;9.59;92.83;93088.05;1825842;78;21078;-77
2021/06/11 02:59:04;;;;;;;3.77;3.47;;;;;;;9.60;92.33;93084.16;1859097;74;21000;-77
2021/06/11 03:01:35;;;;;;;3.60;3.30;;;;;;;9.54;91.11;93084.96;1869214;76;21540;-76
2021/06/11 03:04:01;;;;;;;3.70;3.37;;;;;;;9.52;91.24;93084.61;1834287;77;21137;-77
2021/06/11 03:06:28;;;;;;;5.78;3.42;;;;;;;9.48;91.55;93081.31;1848524;76;22342;-76
2021/06/11 03:08:54;;;;;;;4.00;3.52;;;;;;;9.52;91.92;93085.96;1881864;76;21030;-77
2021/06/11 03:11:30;;;;;;;3.80;3.40;;;;;;;9.55;92.10;93081.07;1881631;76;21112;-78
2021/06/11 03:13:53;;;;;;;3.47;3.17;;;;;;;9.59;92.10;93089.97;1870924;76;21105;-78
2021/06/11 03:16:19;;;;;;;5.12;3.50;;;;;;;9.61;92.01;93087.05;1839254;76;21033;-78
2021/06/11 03:18:58;;;;;;;4.30;3.90;;;;;;;9.58;91.89;93087.84;1862237;76;21071;-78
2021/06/11 03:21:28;;;;;;;4.53;4.12;;;;;;;9.53;92.24;93087.50;1863535;76;21018;-78
2021/06/11 03:24:24;;;;;;;4.67;3.80;;;;;;;9.55;92.54;93088.63;1861622;76;21026;-78
2021/06/11 03:27:04;;;;;;;3.70;3.40;;;;;;;9.58;92.52;93093.27;1880827;76;21602;-79
2021/06/11 03:29:34;;;;;;;4.72;3.08;;;;;;;9.62;92.35;93092.66;1883499;76;21032;-78
2021/06/11 03:32:04;;;;;;;3.80;3.50;;;;;;;9.62;92.39;93089.95;1883949;76;21056;-78
2021/06/11 03:34:34;;;;;;;3.10;2.90;;;;;;;9.66;92.34;93087.22;1882379;75;20994;-79
2021/06/11 03:37:03;;;;;;;3.70;3.00;;;;;;;9.69;91.99;93085.84;1856537;76;21653;-79
2021/06/11 03:39:51;;;;;;;6.25;4.20;;;;;;;9.62;91.78;93087.82;1856131;76;20970;-79
2021/06/11 03:42:18;;;;;;;4.90;3.27;;;;;;;9.52;92.08;93094.10;1848537;77;21049;-79
2021/06/11 03:44:48;;;;;;;5.70;3.55;;;;;;;9.49;92.40;93091.59;1840869;76;21090;-78
2021/06/11 03:47:19;;;;;;;6.70;3.72;;;;;;;9.53;92.27;93096.41;1874000;76;21028;-79
2021/06/11 03:49:46;;;;;;;7.25;4.17;;;;;;;9.59;92.27;93094.84;1852706;75;21075;-77
2021/06/11 03:52:13;;;;;;;12.40;3.95;;;;;;;9.69;92.44;93089.91;1846121;77;21008;-78
2021/06/11 03:54:43;;;;;;;3.92;3.50;;;;;;;9.84;92.59;93097.98;1845085;77;21017;-78
2021/06/11 03:57:10;;;;;;;4.37;3.42;;;;;;;9.98;92.48;93098.66;1851848;75;21245;-78
2021/06/11 03:59:36;;;;;;;5.45;3.10;;;;;;;10.11;91.88;93100.89;1842428;76;21018;-78
2021/06/11 04:02:03;;;;;;;4.25;3.37;;;;;;;10.24;91.39;93095.17;1819547;76;21013;-79
2021/06/11 04:04:30;;;;;;;4.10;3.70;;;;;;;10.35;91.17;93095.89;1869594;76;20968;-79
2021/06/11 04:07:00;;;;;;;7.35;3.60;;;;;;;10.50;90.77;93099.86;1840742;76;20963;-80
2021/06/11 04:09:29;;;;;;;5.83;3.25;;;;;;;10.60;90.23;93099.73;1838619;77;21069;-79
2021/06/11 04:12:05;;;;;;;3.90;3.60;;;;;;;10.67;90.16;93095.59;1821406;77;21034;-79
2021/06/11 04:14:40;;;;;;;4.70;4.08;;;;;;;10.81;90.24;93100.72;1833058;76;21068;-81
2021/06/11 04:17:11;;;;;;;;;;;;;;;10.92;89.49;93103.52;1852571;76;21626;-79
2021/06/11 04:19:43;;;;;;;3.87;3.58;;;;;;;10.97;88.46;93109.69;1796338;78;20156;-79
2021/06/11 04:22:12;;;;;;;5.00;4.40;;;;;;;10.91;87.82;93109.38;1822595;77;23020;-80
2021/06/11 04:24:39;;;;;;;4.92;4.42;;;;;;;10.82;87.32;93113.14;1847104;77;20948;-79
2021/06/11 04:27:06;;;;;;;5.92;4.37;;;;;;;10.73;87.48;93111.49;1850896;76;20974;-79
2021/06/11 04:29:33;;;;;;;10.40;4.28;;;;;;;10.69;87.89;93115.02;1881083;75;21442;-79
2021/06/11 04:31:59;;;;;;;5.55;4.90;;;;;;;10.67;88.16;93114.62;1865088;76;20963;-79
2021/06/11 04:34:26;;;;;;;4.97;4.42;;;;;;;10.69;88.17;93112.88;1809463;76;21098;-79
2021/06/11 04:36:55;;;;;;;4.37;3.98;;;;;;;10.74;88.85;93111.67;1879383;74;20979;-78
2021/06/11 04:39:21;;;;;;;4.75;4.05;;;;;;;10.88;89.55;93115.02;1810964;77;20952;-79
2021/06/11 04:41:48;;;;;;;6.75;4.50;;;;;;;11.07;89.37;93108.81;1808178;79;20856;-78
2021/06/11 04:44:14;;;;;;;7.37;5.17;;;;;;;11.24;88.67;93109.19;1818751;78;21046;-78
2021/06/11 04:46:41;;;;;;;4.85;4.45;;;;;;;11.37;88.23;93105.36;1792825;77;21332;-80
2021/06/11 04:49:07;;;;;;;7.53;4.75;;;;;;;11.50;88.04;93106.35;1792082;78;21037;-79
2021/06/11 04:51:35;;;;;;;5.45;4.50;;;;;;;11.66;88.00;93106.55;1864794;75;21028;-79
2021/06/11 04:54:02;;;;;;;5.37;4.30;;;;;;;11.85;87.35;93104.39;1875100;75;21632;-81
2021/06/11 04:56:29;;;;;;;4.90;4.50;;;;;;;12.03;87.56;93104.89;1871976;76;21632;-78
2021/06/11 04:58:58;;;;;;;4.03;3.70;;;;;;;12.28;86.76;93105.89;1868482;75;21778;-79
2021/06/11 05:01:25;;;;;;;4.92;3.87;;;;;;;12.69;85.91;93105.45;1866298;75;21052;-81
2021/06/11 05:03:51;;;;;;;4.55;4.15;;;;;;;13.15;84.68;93101.11;1855917;76;21037;-79
2021/06/11 05:06:18;;;;;;;4.20;3.60;;;;;;;13.53;83.01;93099.59;1863274;76;21147;-80
2021/06/11 05:08:46;;;;;;;6.33;3.65;;;;;;;13.80;81.90;93091.26;1845314;76;21026;-78
2021/06/11 05:11:15;;;;;;;5.67;3.58;;;;;;;14.01;80.83;93100.17;1818116;76;21949;-79
2021/06/11 05:13:45;;;;;;;3.80;3.50;;;;;;;14.26;79.82;93093.55;1864388;76;21164;-80
2021/06/11 05:16:16;;;;;;;3.80;3.50;;;;;;;14.58;78.93;93098.27;1818575;76;21018;-80
2021/06/11 05:18:55;;;;;;;4.92;3.58;;;;;;;14.93;77.93;93092.34;1814427;76;21019;-79
2021/06/11 05:21:19;;;;;;;4.87;3.77;;;;;;;15.28;77.42;93090.66;1842903;76;21108;-80
2021/06/11 05:23:46;;;;;;;3.85;3.40;;;;;;;15.53;75.32;93096.22;1873060;76;22436;-80
2021/06/11 05:26:13;;;;;;;3.67;3.37;;;;;;;15.67;74.37;93092.92;1872115;76;21600;-78
2021/06/11 05:28:40;;;;;;;3.98;3.65;;;;;;;15.75;74.18;93095.02;1868893;76;21856;-80
2021/06/11 05:31:07;;;;;;;6.58;3.50;;;;;;;15.84;73.18;93096.37;1865960;76;20968;-80
2021/06/11 05:33:33;;;;;;;3.90;3.52;;;;;;;15.97;72.86;93095.78;1869408;76;21064;-81
2021/06/11 05:36:00;;;;;;;3.45;3.15;;;;;;;16.22;72.12;93101.89;1807279;78;22094;-80
2021/06/11 05:38:27;;;;;;;3.25;2.95;;;;;;;16.56;71.23;93097.11;1820716;76;21004;-81
2021/06/11 05:40:55;;;;;;;3.50;3.20;;;;;;;16.88;68.89;93102.19;1861894;76;21167;-80
2021/06/11 05:43:26;;;;;;;5.75;3.47;;;;;;;17.09;67.29;93102.09;1801575;79;21552;-80
2021/06/11 05:45:54;;;;;;;4.50;4.03;;;;;;;17.17;66.48;93097.27;1877201;76;21132;-80
2021/06/11 05:48:21;;;;;;;3.42;3.12;;;;;;;17.22;66.67;93099.44;1794723;77;21094;-81
2021/06/11 05:50:48;;;;;;;3.87;3.37;;;;;;;17.34;65.89;93095.72;1803651;79;21627;-80
2021/06/11 05:53:15;;;;;;;5.50;3.30;;;;;;;17.41;65.86;93097.64;1858065;76;21467;-79
2021/06/11 05:55:45;;;;;;;5.22;3.10;;;;;;;17.50;65.53;93093.42;1823685;77;21060;-79
2021/06/11 05:58:14;;;;;;;4.20;3.02;;;;;;;17.50;64.44;93087.92;1818095;77;21614;-80
2021/06/11 06:00:41;;;;;;;5.58;3.70;;;;;;;17.39;64.63;93094.56;1873932;75;21150;-80
2021/06/11 06:03:08;;;;;;;3.45;3.15;;;;;;;17.29;65.73;93095.69;1880026;76;21092;-80
2021/06/11 06:05:36;;;;;;;11.22;3.17;;;;;;;17.19;65.88;93088.60;1835140;77;21021;-81
2021/06/11 06:08:04;;;;;;;3.25;2.95;;;;;;;17.07;66.08;93093.52;1864635;75;21784;-80
2021/06/11 06:10:30;;;;;;;3.33;3.02;;;;;;;16.97;65.83;93094.05;1835109;76;21037;-80
2021/06/11 06:12:56;;;;;;;3.05;2.85;;;;;;;16.93;65.85;93097.52;1870918;74;22144;-81
2021/06/11 06:15:23;;;;;;;4.03;3.05;;;;;;;16.92;65.95;93099.47;1864989;76;22390;-80
2021/06/11 06:17:50;;;;;;;3.37;3.17;;;;;;;16.91;66.47;93093.83;1884782;74;21143;-81
2021/06/11 06:20:17;;;;;;;3.10;2.90;;;;;;;16.97;66.34;93097.56;1890371;74;21042;-81
2021/06/11 06:22:43;;;;;;;6.08;3.25;;;;;;;17.12;65.86;93097.09;1905789;74;21009;-81
2021/06/11 06:25:13;;;;;;;3.77;3.47;;;;;;;17.30;64.83;93104.70;1887333;74;21135;-81
2021/06/11 06:27:41;;;;;;;4.85;3.00;;;;;;;17.45;64.49;93105.73;1857076;74;21064;-81
2021/06/11 06:30:09;;;;;;;4.17;3.77;;;;;;;17.57;64.54;93104.16;1891507;74;22035;-81
2021/06/11 06:32:35;;;;;;;2.95;2.75;;;;;;;17.61;64.19;93097.32;1868748;74;21010;-79
2021/06/11 06:35:02;;;;;;;3.22;2.90;;;;;;;17.67;61.19;93101.01;1832072;76;21062;-79
2021/06/11 06:37:29;;;;;;;2.83;2.62;;;;;;;17.78;60.26;93113.03;1849257;75;21099;-81
2021/06/11 06:40:00;;;;;;;3.20;2.90;;;;;;;17.85;60.69;93112.02;1828093;76;21314;-83
2021/06/11 06:42:28;;;;;;;7.80;5.90;;;;;;;17.94;57.84;93104.59;1818662;77;21836;-81
2021/06/11 06:44:55;;;;;;;6.50;3.85;;;;;;;18.00;57.33;93108.13;1797482;77;21037;-81
2021/06/11 06:47:22;;;;;;;9.35;6.37;;;;;;;18.07;56.96;93110.62;1799500;75;21645;-80
2021/06/11 06:49:49;;;;;;;3.95;3.58;;;;;;;18.06;56.81;93106.34;1879912;75;21098;-82
2021/06/11 06:52:16;;;;;;;4.12;3.35;;;;;;;18.07;56.70;93099.00;1848593;76;21780;-81
2021/06/11 06:54:43;;;;;;;6.60;4.12;;;;;;;18.11;57.12;93097.49;1819646;77;21126;-80
2021/06/11 06:57:12;;;;;;;2.90;2.70;;;;;;;18.17;58.46;93095.70;1788346;78;21620;-81
2021/06/11 06:59:39;;;;;;;4.78;3.30;;;;;;;18.28;56.98;93095.27;1789170;77;21162;-81
2021/06/11 07:02:06;;;;;;;4.33;3.50;;;;;;;18.35;56.03;93093.00;1818542;77;22287;-80
2021/06/11 07:04:32;;;;;;;5.92;4.90;;;;;;;18.38;56.30;93096.23;1822557;78;21739;-79
2021/06/11 07:06:59;;;;;;;3.52;3.12;;;;;;;18.43;56.52;93091.53;1842001;76;21038;-81
2021/06/11 07:09:28;;;;;;;3.25;2.92;;;;;;;18.55;56.48;93091.27;1819721;77;21120;-80
2021/06/11 07:11:56;;;;;;;5.83;3.00;;;;;;;18.63;56.73;93093.89;1803358;78;21038;-82
2021/06/11 07:14:27;;;;;;;8.43;3.45;;;;;;;18.68;55.22;93091.14;1803597;78;21226;-84
2021/06/11 07:16:54;;;;;;;2.90;2.70;;;;;;;18.79;55.38;93092.12;1811246;78;21030;-81
2021/06/11 07:19:22;;;;;;;3.27;2.62;;;;;;;18.90;56.12;93086.95;1825375;77;21097;-80
2021/06/11 07:21:49;;;;;;;3.17;2.80;;;;;;;18.99;55.67;93084.19;1773535;78;21106;-82
2021/06/11 07:24:16;;;;;;;4.78;3.65;;;;;;;19.01;54.76;93089.27;1772324;79;21155;-83
2021/06/11 07:26:42;;;;;;;3.60;3.30;;;;;;;19.01;54.24;93085.89;1840140;76;22127;-82
2021/06/11 07:29:09;;;;;;;3.22;3.02;;;;;;;19.08;54.54;93093.11;1801171;77;21061;-81
2021/06/11 07:31:37;;;;;;;2.95;2.75;;;;;;;19.16;54.81;93082.70;1736503;81;21062;-81
2021/06/11 07:34:04;;;;;;;5.62;3.17;;;;;;;19.28;55.06;93087.91;1759043;81;21623;-82
2021/06/11 07:36:30;;;;;;;4.85;3.08;;;;;;;19.42;53.67;93089.30;1812911;76;21121;-80
2021/06/11 07:38:57;;;;;;;3.15;2.67;;;;;;;19.50;53.35;93083.62;1872652;75;21099;-84
2021/06/11 07:41:26;;;;;;;4.60;3.02;;;;;;;19.64;53.88;93086.41;1886187;75;21068;-84
2021/06/11 07:43:53;;;;;;;3.72;2.80;;;;;;;19.76;53.24;93088.85;1819142;77;21045;-84
2021/06/11 07:46:20;;;;;;;5.08;3.30;;;;;;;19.69;52.36;93085.03;1841903;75;21060;-83
2021/06/11 07:48:50;;;;;;;3.12;2.83;;;;;;;19.48;51.34;93091.58;1861853;76;21364;-85
2021/06/11 07:51:19;;;;;;;3.77;3.35;;;;;;;19.27;52.28;93089.14;1816033;77;21076;-83
2021/06/11 07:53:47;;;;;;;4.62;2.58;;;;;;;19.08;52.42;93088.36;1784614;77;21882;-82
2021/06/11 07:56:14;;;;;;;2.90;2.67;;;;;;;18.90;53.46;93089.08;1834692;77;21092;-83
2021/06/11 07:58:42;;;;;;;2.83;2.50;;;;;;;18.80;53.82;93088.91;1799411;77;21054;-80
2021/06/11 08:01:10;;;;;;;3.12;2.80;;;;;;;18.77;54.27;93087.67;1839293;76;20998;-83
2021/06/11 08:03:40;;;;;;;4.67;3.95;;;;;;;18.81;54.93;93093.20;1843266;77;21024;-83
2021/06/11 08:06:07;;;;;;;2.67;2.47;;;;;;;18.89;52.70;93081.29;1852270;76;21089;-85
2021/06/11 08:08:34;;;;;;;5.85;4.17;;;;;;;18.98;50.93;93088.18;1832827;78;21042;-85
2021/06/11 08:11:01;;;;;;;10.88;3.55;;;;;;;19.08;51.70;93088.36;1828373;77;21929;-81
2021/06/11 08:13:30;;;;;;;4.10;3.67;;;;;;;19.14;50.46;93086.54;1758206;79;21054;-84
2021/06/11 08:15:56;;;;;;;2.95;2.50;;;;;;;19.17;50.79;93082.84;1823267;77;21108;-81
2021/06/11 08:18:23;;;;;;;2.35;2.15;;;;;;;19.16;50.31;93075.05;1845708;77;21602;-84
2021/06/11 08:20:50;;;;;;;3.00;2.62;;;;;;;19.19;52.34;93081.02;1854580;75;21124;-83
2021/06/11 08:23:17;;;;;;;7.33;2.72;;;;;;;19.31;54.03;93071.84;1891847;75;21055;-83
2021/06/11 08:25:45;;;;;;;4.08;2.55;;;;;;;19.40;54.52;93069.69;1824050;75;21019;-83
2021/06/11 08:28:16;;;;;;;2.90;2.70;;;;;;;19.50;54.86;93071.84;1795576;78;22349;-81
2021/06/11 08:30:44;;;;;;;6.83;3.58;;;;;;;19.52;55.75;93071.53;1751468;79;21057;-83
2021/06/11 08:33:11;;;;;;;7.83;2.90;;;;;;;19.43;55.29;93070.77;1783776;76;21303;-82
2021/06/11 08:35:41;;;;;;;3.33;3.02;;;;;;;19.22;56.19;93070.47;1862065;76;21593;-82
2021/06/11 08:38:07;;;;;;;5.20;2.98;;;;;;;19.03;56.25;93073.02;1824171;78;21085;-84
2021/06/11 08:40:33;;;;;;;12.53;7.45;;;;;;;18.87;56.29;93080.35;1890302;75;21088;-80
2021/06/11 08:43:00;;;;;;;4.42;3.00;;;;;;;18.73;57.66;93076.03;1861651;75;21810;-80
2021/06/11 08:45:27;;;;;;;4.08;3.60;;;;;;;18.52;55.38;93083.91;1824378;78;21105;-82
2021/06/11 08:47:55;;;;;;;3.45;3.15;;;;;;;18.30;55.12;93083.97;1799374;78;21025;-81
2021/06/11 08:50:27;;;;;;;3.40;2.83;;;;;;;18.12;56.01;93084.65;1817955;78;21026;-83
2021/06/11 08:52:55;;;;;;;5.25;2.92;;;;;;;17.99;56.03;93089.48;1821556;78;21829;-79
2021/06/11 08:55:22;;;;;;;5.72;3.10;;;;;;;17.90;56.61;93092.17;1873763;75;21068;-82
2021/06/11 08:57:53;;;;;;;3.00;2.80;;;;;;;17.81;57.03;93091.52;1851216;75;21051;-84
2021/06/11 09:00:25;;;;;;;5.47;3.65;;;;;;;17.72;57.31;93086.70;1818342;76;21025;-81
2021/06/11 09:03:34;;;;;;;5.45;4.03;;;;;;;17.73;58.28;93086.09;1808011;76;21130;-80
2021/06/11 09:06:05;;;;;;;4.75;2.80;;;;;;;17.79;58.34;93087.09;1860489;75;21420;-80
2021/06/11 09:08:32;;;;;;;3.33;2.35;;;;;;;17.84;59.05;93084.36;1838444;78;21034;-81
2021/06/11 09:11:21;;;;;;;3.72;2.80;;;;;;;17.86;58.48;93071.67;1836451;77;20994;-84
2021/06/11 09:13:51;;;;;;;6.45;3.60;;;;;;;17.88;59.42;93078.88;1808859;77;21106;-81
2021/06/11 09:16:23;;;;;;;3.95;2.80;;;;;;;17.92;59.74;93071.88;1831537;76;21125;-82
2021/06/11 09:19:04;;;;;;;3.15;2.92;;;;;;;17.98;58.01;93070.66;1791307;76;21276;-80
2021/06/11 09:21:43;;;;;;;3.62;2.83;;;;;;;18.06;59.86;93065.84;1773971;79;21695;-81
2021/06/11 09:24:28;;;;;;;4.17;3.20;;;;;;;18.18;60.60;93060.84;1818213;77;21117;-80
2021/06/11 09:27:16;;;;;;;5.15;3.10;;;;;;;18.30;60.25;93065.32;1794928;75;21039;-82
2021/06/11 09:29:45;;;;;;;6.67;3.60;;;;;;;18.41;60.40;93066.44;1798695;76;21026;-83
2021/06/11 09:32:35;;;;;;;6.70;3.77;;;;;;;18.40;62.22;93073.78;1846720;76;22034;-81
2021/06/11 09:35:44;;;;;;;6.47;3.17;;;;;;;18.12;66.19;93081.90;1848551;76;21132;-81
2021/06/11 09:38:32;;;;;;;10.38;3.80;;;;;;;17.62;66.26;93080.98;1752588;75;21124;-81
2021/06/11 09:41:37;;;;;;;3.92;3.20;;;;;;;17.09;68.66;93100.72;1815500;76;21080;-78
2021/06/11 09:44:21;;;;;;;3.60;2.98;;;;;;;16.63;69.79;93088.65;1819253;75;21098;-78
2021/06/11 09:46:50;;;;;;;4.00;2.65;;;;;;;16.13;69.73;93077.84;1745098;79;21631;-81
2021/06/11 09:49:43;;;;;;;4.05;3.42;;;;;;;15.87;69.85;93071.59;1756906;79;21065;-79
2021/06/11 09:52:11;;;;;;;5.50;3.60;;;;;;;15.78;71.65;93074.20;1867009;75;33547;-81
2021/06/11 09:54:38;;;;;;;4.37;3.37;;;;;;;15.67;76.20;93073.13;1868452;76;21045;-82
2021/06/11 09:57:21;;;;;;;3.37;3.08;;;;;;;15.68;79.59;93075.27;1807623;78;21604;-82
2021/06/11 09:59:48;;;;;;;3.90;3.08;;;;;;;15.67;80.76;93075.11;1826990;75;21098;-80
2021/06/11 10:02:17;;;;;;;5.10;2.70;;;;;;;15.68;81.34;93076.06;1835382;75;21315;-79
2021/06/11 10:04:45;;;;;;;4.30;2.80;;;;;;;15.73;81.05;93076.89;1869505;74;20922;-80
2021/06/11 10:07:12;;;;;;;4.60;3.25;;;;;;;15.74;81.44;93073.53;1850118;76;21441;-79
2021/06/11 10:09:40;;;;;;;3.70;3.40;;;;;;;15.75;82.31;93069.59;1843425;75;20958;-86
2021/06/11 10:12:08;;;;;;;8.65;3.52;;;;;;;15.75;82.84;93075.83;1885036;74;21489;-82
2021/06/11 10:14:34;;;;;;;5.20;3.27;;;;;;;15.79;83.36;93068.27;1796897;79;20931;-83
2021/06/11 10:17:03;;;;;;;4.78;3.12;;;;;;;15.83;83.34;93068.17;1798520;79;21062;-84
2021/06/11 10:19:31;;;;;;;6.03;3.10;;;;;;;15.87;85.04;93067.48;1825259;77;21638;-86
2021/06/11 10:21:58;;;;;;;4.40;2.85;;;;;;;15.94;85.27;93062.37;1798591;78;21066;-81
2021/06/11 10:24:28;;;;;;;5.12;3.08;;;;;;;16.02;85.89;93053.52;1739150;78;21585;-83
2021/06/11 10:29:25;;;;;;;8.48;5.12;;;;;;;16.31;85.24;93046.36;1849511;76;21951;-80
2021/06/11 10:31:51;;;;;;;6.37;5.22;;;;;;;16.42;85.39;93047.55;1756293;79;21100;-84
2021/06/11 10:34:23;;;;;;;4.45;4.05;;;;;;;16.51;85.62;93050.41;1750458;79;21106;-80
2021/06/11 10:36:49;;;;;;;3.45;3.15;;;;;;;16.58;85.21;93050.76;1769901;80;21091;-78
2021/06/11 10:39:22;;;;;;;3.00;2.80;;;;;;;16.70;85.96;93061.58;1779609;78;21536;-83
2021/06/11 10:41:54;;;;;;;4.92;3.20;;;;;;;16.82;82.41;93060.04;1772702;78;21111;-77
2021/06/11 10:44:38;;;;;;;5.17;1.75;;;;;;;16.82;80.66;93058.66;1744568;80;21093;-83
2021/06/11 10:47:22;;;;;;;2.20;2.00;;;;;;;16.75;74.82;93056.31;1732966;80;21638;-81
2021/06/11 10:50:07;;;;;;;2.92;2.65;;;;;;;16.68;76.27;93067.49;1722468;81;21074;-79
2021/06/11 10:52:41;;;;;;;2.05;1.95;;;;;;;16.58;73.71;93079.58;1763038;79;21544;-83
2021/06/11 10:55:24;;;;;;;3.63;3.33;;;;;;;16.31;71.62;93087.52;1755218;79;21144;-84
2021/06/11 10:58:00;;;;;;;4.03;3.60;;;;;;;15.87;70.55;93091.36;1746010;80;21065;-79
2021/06/11 11:00:34;;;;;;;3.33;2.67;;;;;;;15.39;71.57;93101.33;1817538;78;22102;-79
2021/06/11 11:03:01;;;;;;;3.08;2.67;;;;;;;14.93;74.23;93104.09;1808909;77;21123;-84
2021/06/11 11:05:40;;;;;;;4.97;2.10;;;;;;;14.60;75.37;93105.31;1754681;79;21077;-80
2021/06/11 11:08:08;;;;;;;3.58;2.20;;;;;;;14.26;76.21;93100.39;1821030;76;21056;-82
2021/06/11 11:10:44;;;;;;;2.20;2.02;;;;;;;14.03;77.50;93100.53;1775905;78;21104;-80
2021/06/11 11:13:19;;;;;;;2.47;2.27;;;;;;;13.90;78.00;93095.53;1760766;79;21933;-81
2021/06/11 11:15:50;;;;;;;4.70;3.17;;;;;;;13.79;78.27;93097.13;1777800;78;21085;-80
2021/06/11 11:18:23;;;;;;;2.92;2.62;;;;;;;13.73;79.73;93090.64;1755393;80;21122;-80
2021/06/11 11:20:47;;;;;;;2.27;2.08;;;;;;;13.69;81.73;93096.75;1806009;78;21060;-79
2021/06/11 11:23:17;;;;;;;4.67;2.12;;;;;;;13.65;82.47;93089.98;1786147;78;21072;-81
2021/06/11 11:25:44;;;;;;;2.80;2.02;;;;;;;13.64;83.44;93088.45;1789586;78;22167;-82
2021/06/11 11:28:12;;;;;;;2.65;2.27;;;;;;;13.64;83.82;93089.05;1850992;76;21074;-81
2021/06/11 11:30:40;;;;;;;3.87;2.58;;;;;;;13.62;83.66;93085.99;1843677;77;21067;-83
2021/06/11 11:33:08;;;;;;;2.30;2.10;;;;;;;13.65;83.67;93078.30;1810382;78;21027;-81
2021/06/11 11:35:39;;;;;;;4.20;3.80;;;;;;;13.69;84.96;93077.05;1824166;78;21130;-82
2021/06/11 11:38:08;;;;;;;2.98;2.77;;;;;;;13.72;86.25;93081.64;1816429;77;21583;-83
2021/06/11 11:40:35;;;;;;;3.55;2.65;;;;;;;13.78;86.42;93088.16;1822481;76;21104;-82
2021/06/11 11:43:01;;;;;;;2.08;1.82;;;;;;;13.80;85.06;93094.56;1844210;76;21052;-80
2021/06/11 11:45:32;;;;;;;3.58;2.30;;;;;;;13.84;84.83;93089.21;1839638;75;20985;-81
2021/06/11 11:48:04;;;;;;;2.42;2.22;;;;;;;13.80;84.59;93087.73;1805924;78;21045;-84
2021/06/11 11:50:33;;;;;;;2.90;2.60;;;;;;;13.77;87.04;93081.77;1734586;80;21093;-83